CSN392 RJFU-ZBAD
Flight info
| Callsign | CSN392 |
|---|---|
| Flight time | 1h 27m |
| Altitude | 36000 |
| Route | IKE A582 SOT W61 GOGET G597 AGAVO A591 IKEKA W4 HCH W200 DOVIV W55 DUMAP |
| Aircraft | B77W/H-SDE1FGHILORVWXY/L |
Departure
| Time | 2026-05-07 15:44 |
|---|---|
| Airport | Nagasaki Airport (RJFU) |
Arrival
| Time | 2026-05-07 17:11 |
|---|---|
| Airport | Beijing Daxing International Airport (ZBAD) |
| Time | Latitude | Longitude | Altitude | Speed | Heading |
|---|---|---|---|---|---|
| 2026-05-07 15:19 | 32.91557 | 129.91970 | 26 ft | 4 kts | 48° |
| 2026-05-07 15:33 | 32.91552 | 129.91964 | 21 ft | 2 kts | 48° |
| 2026-05-07 15:33 | 32.91539 | 129.91946 | 29 ft | 3 kts | 48° |
| 2026-05-07 15:33 | 32.91525 | 129.91929 | 24 ft | 3 kts | 48° |
| 2026-05-07 15:34 | 32.91511 | 129.91911 | 21 ft | 3 kts | 48° |
| 2026-05-07 15:34 | 32.91500 | 129.91895 | 21 ft | 2 kts | 47° |
| 2026-05-07 15:34 | 32.91488 | 129.91882 | 22 ft | 4 kts | 27° |
| 2026-05-07 15:34 | 32.91475 | 129.91876 | 21 ft | 4 kts | 358° |
| 2026-05-07 15:35 | 32.91459 | 129.91879 | 21 ft | 4 kts | 333° |
| 2026-05-07 15:35 | 32.91443 | 129.91891 | 21 ft | 3 kts | 321° |
| 2026-05-07 15:35 | 32.91433 | 129.91901 | 23 ft | 0 kts | 319° |
| 2026-05-07 15:35 | 32.91432 | 129.91901 | 23 ft | 0 kts | 319° |
| 2026-05-07 15:38 | 32.91435 | 129.91899 | 19 ft | 1 kts | 319° |
| 2026-05-07 15:38 | 32.91445 | 129.91887 | 17 ft | 3 kts | 319° |
| 2026-05-07 15:38 | 32.91477 | 129.91854 | 19 ft | 10 kts | 319° |
| 2026-05-07 15:39 | 32.91546 | 129.91781 | 19 ft | 17 kts | 318° |
| 2026-05-07 15:39 | 32.91651 | 129.91668 | 17 ft | 24 kts | 317° |
| 2026-05-07 15:39 | 32.91786 | 129.91523 | 15 ft | 27 kts | 318° |
| 2026-05-07 15:39 | 32.91924 | 129.91375 | 13 ft | 27 kts | 318° |
| 2026-05-07 15:40 | 32.92061 | 129.91228 | 16 ft | 27 kts | 318° |
| 2026-05-07 15:40 | 32.92192 | 129.91088 | 18 ft | 25 kts | 318° |
| 2026-05-07 15:40 | 32.92311 | 129.90960 | 18 ft | 22 kts | 318° |
| 2026-05-07 15:40 | 32.92422 | 129.90842 | 17 ft | 22 kts | 319° |
| 2026-05-07 15:41 | 32.92535 | 129.90724 | 15 ft | 22 kts | 318° |
| 2026-05-07 15:41 | 32.92647 | 129.90603 | 15 ft | 22 kts | 317° |
| 2026-05-07 15:41 | 32.92754 | 129.90488 | 14 ft | 15 kts | 316° |
| 2026-05-07 15:41 | 32.92769 | 129.90379 | 14 ft | 14 kts | 239° |
| 2026-05-07 15:42 | 32.92698 | 129.90315 | 15 ft | 13 kts | 189° |
| 2026-05-07 15:42 | 32.92630 | 129.90346 | 16 ft | 3 kts | 138° |
| 2026-05-07 15:42 | 32.92623 | 129.90354 | 14 ft | 0 kts | 136° |
| 2026-05-07 15:43 | 32.92599 | 129.90380 | 17 ft | 19 kts | 138° |
| 2026-05-07 15:43 | 32.92338 | 129.90658 | 20 ft | 90 kts | 138° |
| 2026-05-07 15:43 | 32.91679 | 129.91361 | 20 ft | 162 kts | 138° |
| 2026-05-07 15:44 | 32.90751 | 129.92364 | 391 ft | 185 kts | 138° |
| 2026-05-07 15:44 | 32.89773 | 129.93419 | 1083 ft | 192 kts | 140° |
| 2026-05-07 15:44 | 32.88877 | 129.94439 | 1861 ft | 193 kts | 139° |
| 2026-05-07 15:44 | 32.87922 | 129.95555 | 2643 ft | 192 kts | 140° |
| 2026-05-07 15:45 | 32.86963 | 129.96660 | 3365 ft | 193 kts | 140° |
| 2026-05-07 15:45 | 32.85943 | 129.97820 | 3733 ft | 216 kts | 140° |
| 2026-05-07 15:45 | 32.84777 | 129.99138 | 3949 ft | 247 kts | 140° |
| 2026-05-07 15:45 | 32.83476 | 130.00606 | 4438 ft | 263 kts | 142° |
| 2026-05-07 15:46 | 32.80109 | 130.01500 | 5843 ft | 261 kts | 202° |
| 2026-05-07 15:46 | 32.78606 | 130.00329 | 6681 ft | 261 kts | 229° |
| 2026-05-07 15:46 | 32.77745 | 129.98460 | 7600 ft | 259 kts | 256° |
| 2026-05-07 15:47 | 32.77716 | 129.96334 | 8482 ft | 262 kts | 283° |
| 2026-05-07 15:47 | 32.78569 | 129.94394 | 9344 ft | 271 kts | 308° |
| 2026-05-07 15:47 | 32.79925 | 129.92813 | 10052 ft | 277 kts | 312° |
| 2026-05-07 15:47 | 32.81368 | 129.91211 | 10542 ft | 294 kts | 312° |
| 2026-05-07 15:48 | 32.82936 | 129.89466 | 10761 ft | 323 kts | 312° |
| 2026-05-07 15:48 | 32.84641 | 129.87555 | 10971 ft | 351 kts | 313° |
| 2026-05-07 15:48 | 32.86454 | 129.85512 | 11554 ft | 364 kts | 312° |
| 2026-05-07 15:48 | 32.88311 | 129.83419 | 12417 ft | 370 kts | 313° |
| 2026-05-07 15:49 | 32.90480 | 129.81683 | 13104 ft | 390 kts | 333° |
| 2026-05-07 15:49 | 32.93133 | 129.80894 | 13979 ft | 405 kts | 349° |
| 2026-05-07 15:49 | 32.95986 | 129.80996 | 14813 ft | 415 kts | 2° |
| 2026-05-07 15:49 | 32.98888 | 129.81447 | 15460 ft | 419 kts | 359° |
| 2026-05-07 15:50 | 33.01793 | 129.81248 | 16060 ft | 418 kts | 342° |
| 2026-05-07 15:50 | 33.04475 | 129.80147 | 16850 ft | 409 kts | 324° |
| 2026-05-07 15:50 | 33.06771 | 129.78221 | 17576 ft | 404 kts | 315° |
| 2026-05-07 15:50 | 33.09005 | 129.76141 | 18298 ft | 411 kts | 315° |
| 2026-05-07 15:51 | 33.11273 | 129.74052 | 19099 ft | 413 kts | 316° |
| 2026-05-07 15:51 | 33.13578 | 129.71963 | 19852 ft | 417 kts | 316° |
| 2026-05-07 15:51 | 33.15909 | 129.69880 | 20550 ft | 422 kts | 317° |
| 2026-05-07 15:51 | 33.18289 | 129.67768 | 21245 ft | 427 kts | 317° |
| 2026-05-07 15:52 | 33.20694 | 129.65637 | 21947 ft | 430 kts | 318° |
| 2026-05-07 15:52 | 33.23277 | 129.63858 | 22440 ft | 447 kts | 334° |
| 2026-05-07 15:52 | 33.26369 | 129.63033 | 23009 ft | 466 kts | 351° |
| 2026-05-07 15:52 | 33.29648 | 129.63240 | 23656 ft | 479 kts | 5° |
| 2026-05-07 15:53 | 33.32911 | 129.64192 | 24175 ft | 485 kts | 10° |
| 2026-05-07 15:53 | 33.36183 | 129.65274 | 24642 ft | 491 kts | 11° |
| 2026-05-07 15:53 | 33.39494 | 129.66388 | 25134 ft | 495 kts | 11° |
| 2026-05-07 15:53 | 33.42821 | 129.67495 | 25657 ft | 498 kts | 11° |
| 2026-05-07 15:54 | 33.46183 | 129.68592 | 26166 ft | 502 kts | 10° |
| 2026-05-07 15:54 | 33.49567 | 129.69677 | 26678 ft | 505 kts | 10° |
| 2026-05-07 15:54 | 33.52938 | 129.70747 | 27170 ft | 509 kts | 10° |
| 2026-05-07 15:54 | 33.56373 | 129.71834 | 27653 ft | 512 kts | 10° |
| 2026-05-07 15:55 | 33.59840 | 129.72933 | 28110 ft | 516 kts | 10° |
| 2026-05-07 15:55 | 33.63321 | 129.74039 | 28541 ft | 520 kts | 10° |
| 2026-05-07 15:55 | 33.66842 | 129.75160 | 28966 ft | 523 kts | 10° |
| 2026-05-07 15:55 | 33.70381 | 129.76280 | 29353 ft | 523 kts | 8° |
| 2026-05-07 15:56 | 33.73957 | 129.76828 | 29545 ft | 517 kts | 353° |
| 2026-05-07 15:56 | 33.77436 | 129.76270 | 29980 ft | 504 kts | 338° |
| 2026-05-07 15:56 | 33.80622 | 129.74719 | 30509 ft | 486 kts | 327° |
| 2026-05-07 15:56 | 33.83655 | 129.72886 | 30877 ft | 489 kts | 327° |
| 2026-05-07 15:57 | 33.86723 | 129.71101 | 31294 ft | 490 kts | 328° |
| 2026-05-07 15:57 | 33.89812 | 129.69362 | 31776 ft | 489 kts | 329° |
| 2026-05-07 15:57 | 33.92904 | 129.67650 | 32269 ft | 488 kts | 329° |
| 2026-05-07 15:57 | 33.95987 | 129.65944 | 32740 ft | 487 kts | 328° |
| 2026-05-07 15:58 | 33.99065 | 129.64235 | 33170 ft | 487 kts | 328° |
| 2026-05-07 15:58 | 34.02141 | 129.62531 | 33636 ft | 486 kts | 328° |
| 2026-05-07 15:58 | 34.05211 | 129.60830 | 34070 ft | 485 kts | 328° |
| 2026-05-07 15:58 | 34.08274 | 129.59134 | 34496 ft | 483 kts | 328° |
| 2026-05-07 15:59 | 34.11320 | 129.57447 | 34980 ft | 479 kts | 328° |
| 2026-05-07 15:59 | 34.14294 | 129.55797 | 35449 ft | 476 kts | 327° |
| 2026-05-07 15:59 | 34.17298 | 129.54129 | 35868 ft | 474 kts | 327° |
| 2026-05-07 16:00 | 34.31836 | 129.46015 | 35971 ft | 483 kts | 327° |
| 2026-05-07 16:00 | 34.55959 | 129.32511 | 35885 ft | 469 kts | 327° |
| 2026-05-07 16:01 | 34.79360 | 129.19216 | 35924 ft | 471 kts | 326° |
| 2026-05-07 16:01 | 35.02921 | 129.05413 | 35890 ft | 478 kts | 326° |
| 2026-05-07 16:02 | 35.26436 | 128.91564 | 35917 ft | 464 kts | 325° |
| 2026-05-07 16:02 | 35.50120 | 128.77509 | 35893 ft | 479 kts | 325° |
| 2026-05-07 16:03 | 35.73739 | 128.63447 | 35916 ft | 462 kts | 324° |
| 2026-05-07 16:03 | 35.84414 | 128.55172 | 35885 ft | 444 kts | 308° |
| 2026-05-07 16:03 | 35.93294 | 128.44517 | 35932 ft | 449 kts | 307° |
| 2026-05-07 16:04 | 36.11129 | 128.23184 | 35915 ft | 442 kts | 306° |
| 2026-05-07 16:04 | 36.28470 | 128.02316 | 35892 ft | 434 kts | 306° |
| 2026-05-07 16:05 | 36.46042 | 127.81001 | 35939 ft | 446 kts | 306° |
| 2026-05-07 16:05 | 36.63482 | 127.59793 | 35932 ft | 429 kts | 305° |
| 2026-05-07 16:06 | 36.80612 | 127.38816 | 36046 ft | 438 kts | 305° |
| 2026-05-07 16:06 | 36.97587 | 127.17881 | 35888 ft | 426 kts | 304° |
| 2026-05-07 16:07 | 37.13443 | 126.96675 | 35996 ft | 415 kts | 297° |
| 2026-05-07 16:07 | 37.27765 | 126.73188 | 35998 ft | 422 kts | 297° |
| 2026-05-07 16:08 | 37.40340 | 126.49803 | 35974 ft | 382 kts | 279° |
| 2026-05-07 16:08 | 37.41164 | 126.36657 | 36039 ft | 382 kts | 265° |
| 2026-05-07 16:08 | 37.41023 | 126.27518 | 36014 ft | 392 kts | 266° |
| 2026-05-07 16:09 | 37.40736 | 125.99845 | 35960 ft | 392 kts | 266° |
| 2026-05-07 16:09 | 37.40411 | 125.73218 | 35975 ft | 379 kts | 266° |
| 2026-05-07 16:10 | 37.40045 | 125.46175 | 36028 ft | 394 kts | 266° |
| 2026-05-07 16:10 | 37.39628 | 125.18815 | 35978 ft | 383 kts | 266° |
| 2026-05-07 16:11 | 37.39165 | 124.92292 | 36042 ft | 382 kts | 266° |
| 2026-05-07 16:11 | 37.36708 | 124.79225 | 36057 ft | 392 kts | 250° |
| 2026-05-07 16:11 | 37.30966 | 124.67358 | 36034 ft | 399 kts | 243° |
| 2026-05-07 16:12 | 37.19676 | 124.43981 | 35979 ft | 379 kts | 252° |
| 2026-05-07 16:12 | 37.17607 | 124.31298 | 36108 ft | 379 kts | 266° |
| 2026-05-07 16:12 | 37.17269 | 124.17732 | 36094 ft | 390 kts | 266° |
| 2026-05-07 16:13 | 37.12606 | 123.91828 | 36039 ft | 398 kts | 243° |
| 2026-05-07 16:13 | 37.00782 | 123.69269 | 36038 ft | 387 kts | 243° |
| 2026-05-07 16:14 | 36.88850 | 123.46369 | 36090 ft | 401 kts | 242° |
| 2026-05-07 16:14 | 36.84612 | 123.34015 | 36177 ft | 391 kts | 265° |
| 2026-05-07 16:14 | 36.86584 | 123.20659 | 36109 ft | 394 kts | 283° |
| 2026-05-07 16:15 | 36.92878 | 122.94852 | 36087 ft | 384 kts | 282° |
| 2026-05-07 16:15 | 36.99016 | 122.69044 | 36121 ft | 396 kts | 282° |
| 2026-05-07 16:16 | 37.05267 | 122.42501 | 36095 ft | 392 kts | 282° |
| 2026-05-07 16:16 | 37.10355 | 122.30463 | 36116 ft | 402 kts | 301° |
| 2026-05-07 16:16 | 37.18227 | 122.20492 | 36120 ft | 389 kts | 295° |
| 2026-05-07 16:16 | 37.22200 | 122.08138 | 36197 ft | 385 kts | 283° |
| 2026-05-07 16:17 | 37.25512 | 121.95125 | 36124 ft | 396 kts | 284° |
| 2026-05-07 16:17 | 37.32208 | 121.69104 | 36093 ft | 386 kts | 284° |
| 2026-05-07 16:18 | 37.38712 | 121.43546 | 36149 ft | 387 kts | 284° |
| 2026-05-07 16:18 | 37.45221 | 121.17796 | 36133 ft | 398 kts | 285° |
| 2026-05-07 16:19 | 37.53330 | 120.92223 | 36130 ft | 386 kts | 287° |
| 2026-05-07 16:19 | 37.58135 | 120.76979 | 36142 ft | 391 kts | 288° |
| 2026-05-07 16:20 | 37.60177 | 120.70654 | 36136 ft | 394 kts | 289° |
| 2026-05-07 16:20 | 37.62268 | 120.64359 | 35982 ft | 382 kts | 288° |
| 2026-05-07 16:20 | 37.63288 | 120.61261 | 35764 ft | 380 kts | 288° |
| 2026-05-07 16:21 | 37.64283 | 120.58226 | 35495 ft | 379 kts | 288° |
| 2026-05-07 16:21 | 37.65326 | 120.55156 | 35173 ft | 381 kts | 290° |
| 2026-05-07 16:21 | 37.66536 | 120.52169 | 34840 ft | 383 kts | 294° |
| 2026-05-07 16:21 | 37.67868 | 120.49253 | 34535 ft | 383 kts | 295° |
| 2026-05-07 16:22 | 37.69205 | 120.46345 | 34221 ft | 383 kts | 295° |
| 2026-05-07 16:22 | 37.70544 | 120.43430 | 33805 ft | 384 kts | 295° |
| 2026-05-07 16:22 | 37.71873 | 120.40527 | 33245 ft | 388 kts | 295° |
| 2026-05-07 16:22 | 37.73230 | 120.37554 | 32623 ft | 393 kts | 295° |
| 2026-05-07 16:23 | 37.74600 | 120.34546 | 32430 ft | 397 kts | 295° |
| 2026-05-07 16:23 | 37.75983 | 120.31507 | 32267 ft | 399 kts | 295° |
| 2026-05-07 16:23 | 37.77361 | 120.28478 | 32233 ft | 396 kts | 295° |
| 2026-05-07 16:24 | 37.80107 | 120.22431 | 32234 ft | 397 kts | 295° |
| 2026-05-07 16:24 | 37.82864 | 120.16341 | 32226 ft | 399 kts | 295° |
| 2026-05-07 16:25 | 37.85602 | 120.10284 | 32238 ft | 399 kts | 295° |
| 2026-05-07 16:25 | 37.88360 | 120.04170 | 32218 ft | 398 kts | 295° |
| 2026-05-07 16:26 | 37.91052 | 119.98204 | 32101 ft | 381 kts | 295° |
| 2026-05-07 16:26 | 37.92374 | 119.95259 | 31924 ft | 390 kts | 295° |
| 2026-05-07 16:26 | 37.93731 | 119.92224 | 31677 ft | 399 kts | 295° |
| 2026-05-07 16:26 | 37.95102 | 119.89164 | 31436 ft | 400 kts | 295° |
| 2026-05-07 16:27 | 37.96479 | 119.86094 | 31194 ft | 401 kts | 295° |
| 2026-05-07 16:27 | 37.97857 | 119.83019 | 30960 ft | 401 kts | 295° |
| 2026-05-07 16:27 | 37.99218 | 119.79980 | 30725 ft | 401 kts | 295° |
| 2026-05-07 16:27 | 38.00597 | 119.76895 | 30481 ft | 401 kts | 295° |
| 2026-05-07 16:28 | 38.01976 | 119.73809 | 30248 ft | 402 kts | 295° |
| 2026-05-07 16:28 | 38.03351 | 119.70727 | 29977 ft | 402 kts | 295° |
| 2026-05-07 16:28 | 38.04726 | 119.67642 | 29689 ft | 401 kts | 295° |
| 2026-05-07 16:28 | 38.06100 | 119.64556 | 29414 ft | 401 kts | 295° |
| 2026-05-07 16:29 | 38.07473 | 119.61471 | 29138 ft | 400 kts | 295° |
| 2026-05-07 16:29 | 38.08840 | 119.58397 | 28872 ft | 399 kts | 296° |
| 2026-05-07 16:29 | 38.10199 | 119.55337 | 28593 ft | 398 kts | 295° |
| 2026-05-07 16:29 | 38.11454 | 119.52274 | 28315 ft | 395 kts | 291° |
| 2026-05-07 16:30 | 38.12518 | 119.49075 | 28060 ft | 392 kts | 290° |
| 2026-05-07 16:30 | 38.13555 | 119.45867 | 27794 ft | 391 kts | 290° |
| 2026-05-07 16:30 | 38.14587 | 119.42677 | 27536 ft | 390 kts | 290° |
| 2026-05-07 16:30 | 38.15619 | 119.39491 | 27273 ft | 390 kts | 290° |
| 2026-05-07 16:31 | 38.16654 | 119.36303 | 27026 ft | 389 kts | 290° |
| 2026-05-07 16:31 | 38.17685 | 119.33128 | 26765 ft | 388 kts | 290° |
| 2026-05-07 16:31 | 38.18714 | 119.29957 | 26504 ft | 387 kts | 290° |
| 2026-05-07 16:31 | 38.19742 | 119.26790 | 26259 ft | 387 kts | 290° |
| 2026-05-07 16:32 | 38.20765 | 119.23634 | 26012 ft | 386 kts | 290° |
| 2026-05-07 16:32 | 38.21733 | 119.20648 | 25821 ft | 384 kts | 290° |
| 2026-05-07 16:32 | 38.22746 | 119.17516 | 25778 ft | 383 kts | 290° |
| 2026-05-07 16:32 | 38.23765 | 119.14363 | 25741 ft | 385 kts | 290° |
| 2026-05-07 16:33 | 38.24788 | 119.11194 | 25741 ft | 388 kts | 290° |
| 2026-05-07 16:33 | 38.25814 | 119.08010 | 25733 ft | 388 kts | 290° |
| 2026-05-07 16:33 | 38.26838 | 119.04834 | 25720 ft | 388 kts | 290° |
| 2026-05-07 16:33 | 38.27861 | 119.01653 | 25726 ft | 388 kts | 290° |
| 2026-05-07 16:34 | 38.28869 | 118.98518 | 25731 ft | 387 kts | 290° |
| 2026-05-07 16:34 | 38.29889 | 118.95340 | 25731 ft | 387 kts | 290° |
| 2026-05-07 16:34 | 38.30909 | 118.92160 | 25721 ft | 387 kts | 290° |
| 2026-05-07 16:34 | 38.31927 | 118.88982 | 25723 ft | 387 kts | 290° |
| 2026-05-07 16:35 | 38.32947 | 118.85794 | 25725 ft | 387 kts | 290° |
| 2026-05-07 16:35 | 38.33961 | 118.82621 | 25733 ft | 387 kts | 290° |
| 2026-05-07 16:35 | 38.34977 | 118.79441 | 25723 ft | 387 kts | 290° |
| 2026-05-07 16:35 | 38.35980 | 118.76295 | 25730 ft | 388 kts | 290° |
| 2026-05-07 16:36 | 38.36995 | 118.73108 | 25728 ft | 388 kts | 290° |
| 2026-05-07 16:36 | 38.38011 | 118.69908 | 25736 ft | 388 kts | 290° |
| 2026-05-07 16:36 | 38.39014 | 118.66751 | 25726 ft | 388 kts | 289° |
| 2026-05-07 16:36 | 38.40026 | 118.63556 | 25734 ft | 388 kts | 289° |
| 2026-05-07 16:37 | 38.41038 | 118.60360 | 25733 ft | 388 kts | 289° |
| 2026-05-07 16:37 | 38.42046 | 118.57172 | 25733 ft | 388 kts | 289° |
| 2026-05-07 16:37 | 38.43056 | 118.53974 | 25723 ft | 388 kts | 289° |
| 2026-05-07 16:37 | 38.44065 | 118.50779 | 25732 ft | 388 kts | 289° |
| 2026-05-07 16:38 | 38.45076 | 118.47573 | 25733 ft | 388 kts | 289° |
| 2026-05-07 16:38 | 38.46068 | 118.44422 | 25730 ft | 388 kts | 289° |
| 2026-05-07 16:38 | 38.47073 | 118.41228 | 25728 ft | 387 kts | 289° |
| 2026-05-07 16:38 | 38.48079 | 118.38032 | 25729 ft | 387 kts | 289° |
| 2026-05-07 16:39 | 38.49086 | 118.34840 | 25732 ft | 387 kts | 289° |
| 2026-05-07 16:39 | 38.49886 | 118.32303 | 25743 ft | 387 kts | 289° |
| 2026-05-07 16:39 | 38.50892 | 118.29111 | 25735 ft | 387 kts | 289° |
| 2026-05-07 16:39 | 38.51891 | 118.25936 | 25705 ft | 382 kts | 289° |
| 2026-05-07 16:40 | 38.52874 | 118.22809 | 25529 ft | 377 kts | 289° |
| 2026-05-07 16:40 | 38.53835 | 118.19747 | 25241 ft | 375 kts | 289° |
| 2026-05-07 16:40 | 38.54808 | 118.16643 | 24881 ft | 375 kts | 289° |
| 2026-05-07 16:40 | 38.55778 | 118.13541 | 24527 ft | 376 kts | 289° |
| 2026-05-07 16:41 | 38.56751 | 118.10430 | 24221 ft | 375 kts | 289° |
| 2026-05-07 16:41 | 38.57716 | 118.07342 | 23957 ft | 374 kts | 289° |
| 2026-05-07 16:41 | 38.58666 | 118.04300 | 23675 ft | 372 kts | 289° |
| 2026-05-07 16:41 | 38.59639 | 118.01235 | 23354 ft | 371 kts | 290° |
| 2026-05-07 16:42 | 38.60679 | 117.98210 | 23052 ft | 370 kts | 291° |
| 2026-05-07 16:42 | 38.61745 | 117.95207 | 22581 ft | 369 kts | 292° |
| 2026-05-07 16:42 | 38.62807 | 117.92231 | 22027 ft | 366 kts | 292° |
| 2026-05-07 16:42 | 38.63848 | 117.89306 | 21497 ft | 364 kts | 292° |
| 2026-05-07 16:43 | 38.64888 | 117.86365 | 20961 ft | 361 kts | 292° |
| 2026-05-07 16:43 | 38.65909 | 117.83462 | 20448 ft | 358 kts | 292° |
| 2026-05-07 16:43 | 38.66929 | 117.80550 | 19925 ft | 356 kts | 292° |
| 2026-05-07 16:43 | 38.67924 | 117.77703 | 19427 ft | 354 kts | 292° |
| 2026-05-07 16:44 | 38.68931 | 117.74814 | 18895 ft | 353 kts | 292° |
| 2026-05-07 16:44 | 38.69781 | 117.72372 | 18473 ft | 352 kts | 292° |
| 2026-05-07 16:44 | 38.70764 | 117.69546 | 17894 ft | 351 kts | 292° |
| 2026-05-07 16:44 | 38.71754 | 117.66694 | 17349 ft | 349 kts | 292° |
| 2026-05-07 16:45 | 38.72737 | 117.63863 | 16838 ft | 347 kts | 293° |
| 2026-05-07 16:45 | 38.73713 | 117.61048 | 16323 ft | 344 kts | 293° |
| 2026-05-07 16:45 | 38.74683 | 117.58248 | 15833 ft | 342 kts | 293° |
| 2026-05-07 16:45 | 38.75646 | 117.55465 | 15337 ft | 340 kts | 294° |
| 2026-05-07 16:46 | 38.76593 | 117.52726 | 14855 ft | 339 kts | 294° |
| 2026-05-07 16:46 | 38.77522 | 117.50035 | 14382 ft | 337 kts | 294° |
| 2026-05-07 16:46 | 38.78472 | 117.47285 | 13895 ft | 336 kts | 294° |
| 2026-05-07 16:46 | 38.79417 | 117.44544 | 13354 ft | 335 kts | 294° |
| 2026-05-07 16:47 | 38.80358 | 117.41813 | 12849 ft | 333 kts | 294° |
| 2026-05-07 16:47 | 38.81281 | 117.39132 | 12363 ft | 331 kts | 294° |
| 2026-05-07 16:47 | 38.82197 | 117.36469 | 11892 ft | 329 kts | 294° |
| 2026-05-07 16:47 | 38.83117 | 117.33790 | 11381 ft | 328 kts | 294° |
| 2026-05-07 16:48 | 38.84042 | 117.31095 | 10830 ft | 329 kts | 294° |
| 2026-05-07 16:48 | 38.84951 | 117.28445 | 10652 ft | 319 kts | 294° |
| 2026-05-07 16:48 | 38.85830 | 117.25878 | 10488 ft | 309 kts | 294° |
| 2026-05-07 16:48 | 38.86680 | 117.23392 | 10342 ft | 298 kts | 294° |
| 2026-05-07 16:49 | 38.87501 | 117.20996 | 10231 ft | 289 kts | 294° |
| 2026-05-07 16:49 | 38.88286 | 117.18697 | 10092 ft | 279 kts | 294° |
| 2026-05-07 16:49 | 38.89056 | 117.16441 | 9979 ft | 270 kts | 294° |
| 2026-05-07 16:49 | 38.89804 | 117.14250 | 9751 ft | 264 kts | 294° |
| 2026-05-07 16:50 | 38.90525 | 117.12132 | 9658 ft | 255 kts | 294° |
| 2026-05-07 16:50 | 38.91218 | 117.10093 | 9567 ft | 251 kts | 294° |
| 2026-05-07 16:50 | 38.91925 | 117.08015 | 9492 ft | 256 kts | 294° |
| 2026-05-07 16:50 | 38.92644 | 117.05899 | 9380 ft | 262 kts | 294° |
| 2026-05-07 16:51 | 38.93383 | 117.03723 | 9146 ft | 267 kts | 294° |
| 2026-05-07 16:51 | 38.94128 | 117.01525 | 8886 ft | 268 kts | 295° |
| 2026-05-07 16:51 | 38.94872 | 116.99329 | 8620 ft | 268 kts | 295° |
| 2026-05-07 16:51 | 38.95615 | 116.97135 | 8366 ft | 267 kts | 295° |
| 2026-05-07 16:52 | 38.96343 | 116.94984 | 8117 ft | 266 kts | 295° |
| 2026-05-07 16:52 | 38.97073 | 116.92824 | 7976 ft | 260 kts | 295° |
| 2026-05-07 16:52 | 38.97791 | 116.90700 | 7920 ft | 258 kts | 295° |
| 2026-05-07 16:52 | 38.98513 | 116.88563 | 7911 ft | 261 kts | 295° |
| 2026-05-07 16:53 | 38.99240 | 116.86409 | 7907 ft | 264 kts | 295° |
| 2026-05-07 16:53 | 38.99973 | 116.84235 | 7887 ft | 264 kts | 295° |
| 2026-05-07 16:53 | 39.00702 | 116.82070 | 7903 ft | 263 kts | 295° |
| 2026-05-07 16:53 | 39.01384 | 116.80046 | 7895 ft | 262 kts | 295° |
| 2026-05-07 16:54 | 39.02101 | 116.77916 | 7889 ft | 262 kts | 295° |
| 2026-05-07 16:54 | 39.02823 | 116.75767 | 7905 ft | 261 kts | 295° |
| 2026-05-07 16:54 | 39.03546 | 116.73616 | 7894 ft | 261 kts | 295° |
| 2026-05-07 16:54 | 39.04266 | 116.71471 | 7903 ft | 261 kts | 295° |
| 2026-05-07 16:55 | 39.04986 | 116.69324 | 7890 ft | 261 kts | 295° |
| 2026-05-07 16:55 | 39.05697 | 116.67204 | 7862 ft | 261 kts | 295° |
| 2026-05-07 16:55 | 39.06414 | 116.65063 | 7661 ft | 260 kts | 295° |
| 2026-05-07 16:55 | 39.07164 | 116.62954 | 7302 ft | 255 kts | 303° |
| 2026-05-07 16:56 | 39.08421 | 116.61371 | 6829 ft | 256 kts | 330° |
| 2026-05-07 16:56 | 39.10067 | 116.60539 | 6526 ft | 254 kts | 348° |
| 2026-05-07 16:56 | 39.13509 | 116.59988 | 5933 ft | 250 kts | 352° |
| 2026-05-07 16:57 | 39.15208 | 116.59742 | 5631 ft | 248 kts | 353° |
| 2026-05-07 16:57 | 39.16914 | 116.59492 | 5356 ft | 245 kts | 352° |
| 2026-05-07 16:57 | 39.18604 | 116.59240 | 5098 ft | 242 kts | 352° |
| 2026-05-07 16:57 | 39.20262 | 116.58990 | 4978 ft | 235 kts | 352° |
| 2026-05-07 16:58 | 39.21873 | 116.58745 | 4933 ft | 234 kts | 352° |
| 2026-05-07 16:58 | 39.22957 | 116.58579 | 4912 ft | 237 kts | 352° |
| 2026-05-07 16:58 | 39.24609 | 116.58323 | 4912 ft | 241 kts | 352° |
| 2026-05-07 16:58 | 39.26280 | 116.58065 | 4902 ft | 241 kts | 352° |
| 2026-05-07 16:59 | 39.27927 | 116.57809 | 4897 ft | 240 kts | 352° |
| 2026-05-07 16:59 | 39.29587 | 116.57551 | 4893 ft | 239 kts | 352° |
| 2026-05-07 16:59 | 39.31242 | 116.57294 | 4901 ft | 239 kts | 352° |
| 2026-05-07 16:59 | 39.33423 | 116.56954 | 4901 ft | 238 kts | 352° |
| 2026-05-07 17:00 | 39.35074 | 116.56697 | 4904 ft | 238 kts | 352° |
| 2026-05-07 17:00 | 39.36717 | 116.56441 | 4892 ft | 238 kts | 352° |
| 2026-05-07 17:00 | 39.37807 | 116.56270 | 4897 ft | 237 kts | 352° |
| 2026-05-07 17:00 | 39.39449 | 116.56014 | 4907 ft | 238 kts | 352° |
| 2026-05-07 17:01 | 39.41101 | 116.55756 | 4857 ft | 240 kts | 352° |
| 2026-05-07 17:01 | 39.42776 | 116.55494 | 4724 ft | 241 kts | 352° |
| 2026-05-07 17:01 | 39.44435 | 116.55235 | 4599 ft | 239 kts | 352° |
| 2026-05-07 17:01 | 39.46055 | 116.54982 | 4457 ft | 232 kts | 352° |
| 2026-05-07 17:02 | 39.47639 | 116.54735 | 4316 ft | 225 kts | 352° |
| 2026-05-07 17:02 | 39.49168 | 116.54496 | 4175 ft | 218 kts | 352° |
| 2026-05-07 17:02 | 39.50646 | 116.54265 | 4040 ft | 210 kts | 351° |
| 2026-05-07 17:02 | 39.52064 | 116.54043 | 3959 ft | 201 kts | 351° |
| 2026-05-07 17:03 | 39.53452 | 116.53825 | 3920 ft | 201 kts | 351° |
| 2026-05-07 17:03 | 39.54826 | 116.53609 | 3904 ft | 200 kts | 351° |
| 2026-05-07 17:03 | 39.56206 | 116.53392 | 3897 ft | 199 kts | 351° |
| 2026-05-07 17:03 | 39.57581 | 116.53176 | 3909 ft | 199 kts | 351° |
| 2026-05-07 17:04 | 39.58939 | 116.52963 | 3905 ft | 199 kts | 351° |
| 2026-05-07 17:04 | 39.60329 | 116.52744 | 3730 ft | 203 kts | 351° |
| 2026-05-07 17:04 | 39.61743 | 116.52522 | 3485 ft | 204 kts | 352° |
| 2026-05-07 17:04 | 39.63147 | 116.52301 | 3229 ft | 202 kts | 352° |
| 2026-05-07 17:05 | 39.64516 | 116.52087 | 3077 ft | 195 kts | 352° |
| 2026-05-07 17:05 | 39.65835 | 116.51879 | 3013 ft | 188 kts | 351° |
| 2026-05-07 17:05 | 39.67154 | 116.51672 | 2935 ft | 194 kts | 352° |
| 2026-05-07 17:05 | 39.68424 | 116.51152 | 2777 ft | 194 kts | 326° |
| 2026-05-07 17:06 | 39.69201 | 116.49752 | 2628 ft | 194 kts | 296° |
| 2026-05-07 17:06 | 39.69357 | 116.48017 | 2454 ft | 199 kts | 270° |
| 2026-05-07 17:06 | 39.69025 | 116.46260 | 2364 ft | 200 kts | 263° |
| 2026-05-07 17:06 | 39.68549 | 116.44596 | 2243 ft | 197 kts | 246° |
| 2026-05-07 17:07 | 39.67490 | 116.43422 | 2138 ft | 210 kts | 214° |
| 2026-05-07 17:07 | 39.66170 | 116.42596 | 2100 ft | 212 kts | 213° |
| 2026-05-07 17:07 | 39.64834 | 116.41752 | 2048 ft | 212 kts | 212° |
| 2026-05-07 17:07 | 39.63494 | 116.40985 | 1980 ft | 210 kts | 197° |
| 2026-05-07 17:08 | 39.62077 | 116.40936 | 2045 ft | 200 kts | 180° |
| 2026-05-07 17:08 | 39.60705 | 116.41016 | 1981 ft | 191 kts | 177° |
| 2026-05-07 17:08 | 39.59445 | 116.41188 | 1992 ft | 178 kts | 175° |
| 2026-05-07 17:08 | 39.58191 | 116.41386 | 1780 ft | 184 kts | 175° |
| 2026-05-07 17:09 | 39.56931 | 116.41585 | 1525 ft | 179 kts | 174° |
| 2026-05-07 17:09 | 39.55714 | 116.41779 | 1282 ft | 173 kts | 175° |
| 2026-05-07 17:09 | 39.54619 | 116.41951 | 1063 ft | 170 kts | 173° |
| 2026-05-07 17:09 | 39.53486 | 116.42132 | 809 ft | 158 kts | 174° |
| 2026-05-07 17:10 | 39.52441 | 116.42300 | 556 ft | 145 kts | 175° |
| 2026-05-07 17:10 | 39.51463 | 116.42460 | 392 ft | 142 kts | 175° |
| 2026-05-07 17:10 | 39.50469 | 116.42615 | 218 ft | 144 kts | 174° |
| 2026-05-07 17:10 | 39.49493 | 116.42771 | 104 ft | 134 kts | 174° |
| 2026-05-07 17:11 | 39.48727 | 116.42893 | 100 ft | 84 kts | 173° |
| 2026-05-07 17:11 | 39.48344 | 116.42954 | 105 ft | 38 kts | 173° |
| 2026-05-07 17:11 | 39.48095 | 116.42913 | 102 ft | 31 kts | 198° |
| 2026-05-07 17:11 | 39.48009 | 116.42816 | 96 ft | 10 kts | 292° |
| 2026-05-07 17:12 | 39.48074 | 116.42773 | 94 ft | 11 kts | 349° |
| 2026-05-07 17:12 | 39.48150 | 116.42758 | 93 ft | 11 kts | 352° |
| 2026-05-07 17:12 | 39.48228 | 116.42746 | 94 ft | 11 kts | 353° |
| 2026-05-07 17:12 | 39.48305 | 116.42734 | 96 ft | 11 kts | 353° |
| 2026-05-07 17:13 | 39.48381 | 116.42723 | 93 ft | 11 kts | 353° |
| 2026-05-07 17:13 | 39.48458 | 116.42711 | 93 ft | 11 kts | 353° |
| 2026-05-07 17:13 | 39.48479 | 116.42708 | 95 ft | 2 kts | 353° |
| 2026-05-07 17:13 | 39.48500 | 116.42705 | 95 ft | 4 kts | 353° |
| 2026-05-07 17:14 | 39.48519 | 116.42702 | 96 ft | 0 kts | 353° |
| 2026-05-07 17:14 | 39.48527 | 116.42700 | 94 ft | 2 kts | 353° |
| 2026-05-07 17:14 | 39.48533 | 116.42699 | 94 ft | 0 kts | 353° |
| 2026-05-07 17:14 | 39.48540 | 116.42698 | 95 ft | 2 kts | 353° |
| 2026-05-07 17:15 | 39.48552 | 116.42696 | 95 ft | 0 kts | 353° |
| 2026-05-07 17:15 | 39.48559 | 116.42695 | 93 ft | 2 kts | 353° |
| 2026-05-07 17:15 | 39.48575 | 116.42693 | 95 ft | 3 kts | 353° |
| 2026-05-07 17:15 | 39.48581 | 116.42692 | 96 ft | 1 kts | 353° |
| 2026-05-07 17:16 | 39.48595 | 116.42690 | 93 ft | 3 kts | 353° |
| 2026-05-07 17:16 | 39.48619 | 116.42686 | 94 ft | 4 kts | 353° |
| 2026-05-07 17:16 | 39.48653 | 116.42680 | 95 ft | 6 kts | 352° |
| 2026-05-07 17:16 | 39.48696 | 116.42673 | 94 ft | 7 kts | 353° |
| 2026-05-07 17:17 | 39.48743 | 116.42666 | 93 ft | 7 kts | 353° |
| 2026-05-07 17:17 | 39.48792 | 116.42658 | 95 ft | 8 kts | 353° |
| 2026-05-07 17:17 | 39.48842 | 116.42650 | 94 ft | 6 kts | 353° |
| 2026-05-07 17:17 | 39.48855 | 116.42648 | 95 ft | 1 kts | 353° |
| 2026-05-07 17:18 | 39.48864 | 116.42646 | 95 ft | 2 kts | 353° |
| 2026-05-07 17:18 | 39.48882 | 116.42643 | 95 ft | 3 kts | 353° |
| 2026-05-07 17:18 | 39.48908 | 116.42640 | 95 ft | 4 kts | 353° |
| 2026-05-07 17:19 | 39.56900 | 116.41590 | 1504 ft | 179 kts | 174° |
| 2026-05-07 17:19 | 39.55679 | 116.41785 | 1258 ft | 173 kts | 175° |
| 2026-05-07 17:19 | 39.54583 | 116.41956 | 1051 ft | 169 kts | 173° |
| 2026-05-07 17:19 | 39.53457 | 116.42136 | 799 ft | 158 kts | 174° |
| 2026-05-07 17:20 | 39.52420 | 116.42303 | 548 ft | 144 kts | 175° |
| 2026-05-07 17:20 | 39.51443 | 116.42463 | 389 ft | 142 kts | 175° |
| 2026-05-07 17:20 | 39.50448 | 116.42618 | 214 ft | 145 kts | 174° |
| 2026-05-07 17:20 | 39.49463 | 116.42775 | 104 ft | 134 kts | 174° |
| 2026-05-07 17:21 | 39.48706 | 116.42896 | 101 ft | 82 kts | 173° |
| 2026-05-07 17:21 | 39.48339 | 116.42955 | 103 ft | 38 kts | 173° |
| 2026-05-07 17:21 | 39.48141 | 116.42932 | 103 ft | 35 kts | 196° |
| 2026-05-07 17:21 | 39.53762 | 116.42088 | 870 ft | 160 kts | 174° |
| 2026-05-07 17:22 | 39.52691 | 116.42258 | 640 ft | 147 kts | 176° |
| 2026-05-07 17:22 | 39.51721 | 116.42421 | 416 ft | 141 kts | 175° |
| 2026-05-07 17:22 | 39.50731 | 116.42574 | 251 ft | 144 kts | 174° |
| 2026-05-07 17:22 | 39.49732 | 116.42734 | 106 ft | 141 kts | 174° |
| 2026-05-07 17:23 | 39.48885 | 116.42869 | 102 ft | 97 kts | 173° |
| 2026-05-07 17:23 | 39.48410 | 116.42944 | 102 ft | 36 kts | 173° |
| 2026-05-07 17:23 | 39.48155 | 116.42937 | 104 ft | 35 kts | 195° |
| 2026-05-07 17:23 | 39.56704 | 116.41621 | 1471 ft | 170 kts | 174° |
| 2026-05-07 17:24 | 39.56166 | 116.41707 | 1357 ft | 175 kts | 174° |
| 2026-05-07 17:24 | 39.54966 | 116.41897 | 1109 ft | 173 kts | 175° |
| 2026-05-07 17:24 | 39.53887 | 116.42068 | 887 ft | 161 kts | 174° |
| 2026-05-07 17:25 | 39.52816 | 116.42238 | 663 ft | 149 kts | 176° |
| 2026-05-07 17:25 | 39.51823 | 116.42407 | 423 ft | 140 kts | 175° |
| 2026-05-07 17:25 | 39.50849 | 116.42556 | 270 ft | 144 kts | 174° |
| 2026-05-07 17:25 | 39.49847 | 116.42715 | 111 ft | 143 kts | 173° |
| 2026-05-07 17:26 | 39.48966 | 116.42857 | 101 ft | 103 kts | 173° |
| 2026-05-07 17:26 | 39.48439 | 116.42939 | 102 ft | 38 kts | 173° |
| 2026-05-07 17:26 | 39.48181 | 116.42946 | 103 ft | 35 kts | 193° |
| 2026-05-07 17:26 | 39.48011 | 116.42856 | 97 ft | 16 kts | 233° |
| 2026-05-07 17:27 | 39.48046 | 116.42782 | 97 ft | 11 kts | 339° |
| 2026-05-07 17:27 | 39.48122 | 116.42763 | 94 ft | 10 kts | 352° |
| 2026-05-07 17:27 | 39.48199 | 116.42750 | 94 ft | 11 kts | 353° |
| 2026-05-07 17:27 | 39.48276 | 116.42738 | 93 ft | 10 kts | 353° |
| 2026-05-07 17:28 | 39.48353 | 116.42727 | 93 ft | 11 kts | 353° |
| 2026-05-07 17:28 | 39.48392 | 116.42721 | 93 ft | 0 kts | 353° |
| 2026-05-07 17:32 | 39.48395 | 116.42721 | 93 ft | 1 kts | 353° |
| 2026-05-07 17:32 | 39.48407 | 116.42719 | 94 ft | 2 kts | 353° |
| 2026-05-07 17:32 | 39.48428 | 116.42716 | 93 ft | 4 kts | 354° |
| 2026-05-07 17:33 | 39.48457 | 116.42712 | 93 ft | 5 kts | 354° |
| 2026-05-07 17:33 | 39.48493 | 116.42707 | 93 ft | 6 kts | 353° |
| 2026-05-07 17:33 | 39.48537 | 116.42699 | 94 ft | 7 kts | 352° |
| 2026-05-07 17:33 | 39.48588 | 116.42690 | 93 ft | 8 kts | 352° |
| 2026-05-07 17:34 | 39.48648 | 116.42680 | 94 ft | 9 kts | 353° |
| 2026-05-07 17:34 | 39.48716 | 116.42669 | 94 ft | 10 kts | 353° |
| 2026-05-07 17:34 | 39.48790 | 116.42658 | 93 ft | 11 kts | 353° |
| 2026-05-07 17:34 | 39.48869 | 116.42646 | 93 ft | 12 kts | 353° |
| 2026-05-07 17:35 | 39.48953 | 116.42633 | 92 ft | 12 kts | 353° |
| 2026-05-07 17:35 | 39.49040 | 116.42620 | 94 ft | 13 kts | 353° |
| 2026-05-07 17:35 | 39.49128 | 116.42606 | 92 ft | 13 kts | 353° |
| 2026-05-07 17:35 | 39.49215 | 116.42592 | 94 ft | 13 kts | 353° |
| 2026-05-07 17:36 | 39.49302 | 116.42577 | 95 ft | 13 kts | 351° |
| 2026-05-07 17:36 | 39.49388 | 116.42549 | 94 ft | 13 kts | 338° |
| 2026-05-07 17:36 | 39.49467 | 116.42496 | 92 ft | 13 kts | 329° |
| 2026-05-07 17:36 | 39.49550 | 116.42434 | 94 ft | 14 kts | 335° |
| 2026-05-07 17:37 | 39.49649 | 116.42408 | 93 ft | 15 kts | 353° |
| 2026-05-07 17:37 | 39.49753 | 116.42391 | 92 ft | 15 kts | 353° |
| 2026-05-07 17:37 | 39.49861 | 116.42374 | 93 ft | 16 kts | 353° |
| 2026-05-07 17:37 | 39.49970 | 116.42357 | 91 ft | 16 kts | 353° |
| 2026-05-07 17:38 | 39.50082 | 116.42339 | 92 ft | 16 kts | 353° |
| 2026-05-07 17:38 | 39.50195 | 116.42322 | 92 ft | 16 kts | 353° |
| 2026-05-07 17:38 | 39.50303 | 116.42306 | 92 ft | 16 kts | 353° |
| 2026-05-07 17:38 | 39.50409 | 116.42289 | 93 ft | 16 kts | 353° |
| 2026-05-07 17:39 | 39.50502 | 116.42274 | 92 ft | 12 kts | 353° |
| 2026-05-07 17:39 | 39.50584 | 116.42261 | 93 ft | 12 kts | 353° |
| 2026-05-07 17:39 | 39.50667 | 116.42248 | 92 ft | 12 kts | 353° |
| 2026-05-07 17:39 | 39.50749 | 116.42235 | 92 ft | 12 kts | 353° |
| 2026-05-07 17:40 | 39.50831 | 116.42222 | 93 ft | 12 kts | 353° |
| 2026-05-07 17:40 | 39.50913 | 116.42210 | 92 ft | 12 kts | 353° |
| 2026-05-07 17:40 | 39.50994 | 116.42195 | 93 ft | 12 kts | 344° |
| 2026-05-07 17:40 | 39.51036 | 116.42115 | 93 ft | 12 kts | 269° |
| 2026-05-07 17:41 | 39.51026 | 116.42011 | 91 ft | 12 kts | 262° |
| 2026-05-07 17:41 | 39.51016 | 116.41908 | 89 ft | 12 kts | 263° |
| 2026-05-07 17:41 | 39.51008 | 116.41802 | 93 ft | 12 kts | 268° |
| 2026-05-07 17:41 | 39.51013 | 116.41691 | 89 ft | 13 kts | 278° |
| 2026-05-07 17:42 | 39.51032 | 116.41606 | 91 ft | 7 kts | 287° |
| 2026-05-07 17:42 | 39.51022 | 116.41546 | 91 ft | 7 kts | 235° |
| 2026-05-07 17:42 | 39.50982 | 116.41516 | 92 ft | 5 kts | 192° |
| 2026-05-07 17:42 | 39.50979 | 116.41516 | 93 ft | 0 kts | 187° |
| 2026-05-07 17:43 | 39.50966 | 116.41515 | 92 ft | 0 kts | 181° |